Accueil
METAR-TAF:

METAR-TAF

Aéroports :

Aérodrome de Sainte-Marie

Île Sainte-Marie, Madagascar

latitude: 17-05S, longitude: 049-49E, altitude: 2 m

Observation

Le bulletin a été fait il y a 21 heures et 14 minutes, à 15:00 UTC
Vent calme
Température 27°C
Humidité 89%
Pression 1010 hPa
Nuages fragmentés à une hauteur de 1700 ft
averses à proximité

METAR: FMMS 051500Z 00000KT VCSH BKN017 27/25 Q1010

Heure: 15:14 (12:14 UTC)

Prévision

Le bulletin a été fait il y a 1 heure et 14 minutes, à 11:00 UTC
Prévision valable du 06 à 12 UTC au 07 à 12 UTC
Vent 12 kt de sud
Visibilité 10 km ou plus
Nuages fragmentés à une hauteur de 1700 ft
Probabilité 30% :
Temporairement
du 06 à 12 UTC au 06 à 14 UTC
Visibilité: 4500 m
averses de pluie
Probabilité 40% :
Temporairement
du 06 à 21 UTC au 07 à 12 UTC
Visibilité: 4000 m
averses de pluie

TAF: FMMS 061100Z 0612/0712 18012KT 9999 BKN017 PROB30 TEMPO 0612/0614 4500 SHRA PROB40 TEMPO 0621/0712 4000 SHRA

Observations et prévisions météorologiques de plus de 4000 aéroports (messages METAR et TAF).

Les stations disponibles sont représentées par des disques jaunes et rouges sur la carte.

Passer la souris dessus pour voir le nom de la station.

Cliquer dessus pour voir les observations et prévisions météorologiques.

Pour changer de carte: cliquez sur les boutons verts avec une croix noire pour zoomer, sur le bouton vert avec un tiret pour effectuer un zoom arrière, ou sur les flèches vertes pour les cartes adjacentes.


METAR-TAF: